Amargosa Valley, Nevada Weather observations

Data are for observation ending at time listed.
 Day   Time    Ave.   Ave.  Ave.  Vector   Max.   Stn.    Total    Solar   Ave.  
  of    of     Air    Rel.  Wind   Wind    Wind   Baro.  Precip.   Rad.    Soil  
Year   Day     Temp.  Hum.  Speed  Dir.    Gust   Pres.                    Temp. 
2015   (PST)    F      %     mph   deg.    mph     mb.     in.     W/m2     F   
------------------------------------------------------------------------------
 246    0:00   78.7    16    9.9   154     14.2   925.0    0.00       0    90.5
 246    0:10   78.7    16   11.2   156     16.7   925.0    0.00       0    90.4
 246    0:20   79.0    15   11.0   163     15.5   925.1    0.00       0    90.3
 246    0:30   78.7    15    9.7   164     15.0   925.0    0.00       0    90.3
 246    0:40   78.6    15    9.9   156     13.2   925.0    0.00       0    90.2
 246    0:50   78.3    16    9.7   167     13.7   925.0    0.00       0    90.1
 246    1:00   78.0    16    9.2   167     12.5   925.0    0.00       0    90.0
 246    1:10   78.4    16    9.7   168     13.2   924.9    0.00       0    89.9
 246    1:20   78.1    16    9.5   169     13.5   925.0    0.00       0    89.9
 246    1:30   77.6    17    8.0   168     11.5   925.1    0.00       0    89.8
 246    1:40   77.8    16    9.3   164     13.9   925.1    0.00       0    89.7
 246    1:50   77.4    16    9.1   159     13.3   925.2    0.00       0    89.7
 246    2:00   77.0    17    9.2   157     13.8   925.2    0.00       0    89.6
 246    2:10   76.8    17    8.2   160     10.9   925.2    0.00       0    89.5
 246    2:20   76.1    17    9.0   157     13.7   925.2    0.00       0    89.5
 246    2:30   75.8    16    9.4   154     14.2   925.2    0.00       0    89.4
 246    2:40   75.6    16    9.0   154     12.4   925.2    0.00       0    89.3
 246    2:50   75.5    16    9.0   151     12.1   925.2    0.00       0    89.3
 246    3:00   74.9    16    8.2   144     11.4   925.2    0.00       0    89.2
 246    3:10   74.4    17    9.3   147     13.4   925.2    0.00       0    89.1
 246    3:20   74.5    17    8.8   146     12.8   925.2    0.00       0    89.0
 246    3:30   74.5    17    8.0   142     10.7   925.2    0.00       0    88.9
 246    3:40   74.4    17    8.4   132     12.5   925.2    0.00       0    88.8
 246    3:50   74.4    17    8.0   132     11.4   925.2    0.00       0    88.8
 246    4:00   74.2    17    6.8   124      9.4   925.2    0.00       0    88.7
 246    4:10   74.2    17    7.6   120     11.2   925.2    0.00       0    88.6
 246    4:20   73.4    17    7.5   112     12.9   925.2    0.00       0    88.5
 246    4:30   73.6    17    8.7   114     12.3   925.1    0.00       0    88.5
 246    4:40   73.4    17   10.1   116     14.4   925.1    0.00       0    88.4
 246    4:50   72.4    18    8.8   120     12.1   925.1    0.00       0    88.3
 246    5:00   72.1    18    8.8   122     12.4   925.1    0.00       0    88.2
 246    5:10   72.0    18    7.6   130     10.3   925.2    0.00       0    88.2
 246    5:20   71.1    19    8.7   130     12.8   925.2    0.00       2    88.1
 246    5:30   70.8    19    9.7   132     14.2   925.0    0.00      10    88.0
 246    5:40   71.8    18   11.2   135     15.5   925.1    0.00      36    87.9
 246    5:50   72.6    18   10.2   139     14.8   925.2    0.00      77    87.8
 246    6:00   73.6    17    9.4   140     13.5   925.4    0.00     122    87.7
 246    6:10   74.2    16    8.8   139     12.1   925.5    0.00     148    87.6
 246    6:20   74.8    16    8.7   134     12.6   925.7    0.00     227    87.5
 246    6:30   75.7    15    8.9   130     12.9   925.8    0.00     278    87.5
 246    6:40   76.6    14    7.8   138     11.1   926.0    0.00     329    87.4
 246    6:50   77.5    14    9.1   142     13.2   926.2    0.00     376    87.3
 246    7:00   78.5    13   10.8   144     16.6   926.2    0.00     432    87.2
 246    7:10   79.1    13   11.2   140     17.4   926.1    0.00     344    87.2
 246    7:20   79.3    13   12.4   145     18.3   926.2    0.00     271    87.1
 246    7:30   80.5    12   12.5   125     19.8   926.3    0.00     492    87.1
 246    7:40   81.3    12   12.8   126     20.8   926.4    0.00     396    87.0
 246    7:50  99999.0   99999  99999.0   99999    99999.0  99999.0   99999.00   99999    99999.0
 246    8:00  99999.0   99999  99999.0   99999    99999.0  99999.0   99999.00   99999    99999.0
 246    8:10  99999.0   99999  99999.0   99999    99999.0  99999.0   99999.00   99999    99999.0
 246    8:20  99999.0   99999  99999.0   99999    99999.0  99999.0   99999.00   99999    99999.0
 246    8:30  99999.0   99999  99999.0   99999    99999.0  99999.0   99999.00   99999    99999.0
 246    8:40  99999.0   99999  99999.0   99999    99999.0  99999.0   99999.00   99999    99999.0
 246    8:50  99999.0   99999  99999.0   99999    99999.0  99999.0   99999.00   99999    99999.0
 246    9:00   84.3    12   17.9   155     25.1   926.3    0.00     678    86.8
 246    9:10   84.7    11   18.6   160     26.6   926.2    0.00     698    86.8
 246    9:20   85.8    11   18.5   161     26.2   926.2    0.00     531    86.8
 246    9:30   85.7    11   20.3   160     27.3   926.2    0.00     524    86.8
 246    9:40   86.0    12   20.8   161     28.7   926.2    0.00     130    86.8
 246    9:50   86.0    12   20.2   163     29.2   926.2    0.00     750    86.8
 246   10:00   86.6    12   18.7   162     26.3   926.1    0.00     799    86.8
 246   10:10   86.6    12   19.9   160     26.5   926.1    0.00     817    86.9
 246   10:20   87.0    11   18.9   163     25.8   925.9    0.00     836    86.9
 246   10:30   87.4    11   19.3   164     26.4   925.9    0.00     850    86.9
 246   10:40   87.8    11   18.5   164     28.1   925.8    0.00     861    87.0
 246   10:50   88.4    11   17.9   166     27.8   925.7    0.00     872    87.0
 246   11:00   89.0    11   17.5   176     25.3   925.6    0.00     886    87.0
 246   11:10   89.1    11   17.1   173     27.0   925.5    0.00     913    87.1
 246   11:20   89.3    11   18.6   166     27.1   925.4    0.00     825    87.2
 246   11:30   88.8    11   17.4   167     26.2   925.2    0.00     610    87.2
 246   11:40   89.8    11   19.3   163     28.9   925.1    0.00     899    87.3
 246   11:50   90.2    10   17.9   170     27.2   925.0    0.00     848    87.3
 246   12:00   90.6    10   20.1   165     26.7   925.0    0.00     722    87.4
 246   12:10   90.2    11   17.9   168     25.3   924.8    0.00     488    87.5
 246   12:20   91.0    11   18.7   172     27.0   924.6    0.00     826    87.6
 246   12:30   92.0    11   18.5   173     26.7   924.6    0.00    1043    87.7
 246   12:40   91.9    11   17.8   180     25.4   924.4    0.00     891    87.8
 246   12:50   92.6    11   17.0   189     24.5   924.4    0.00     878    88.0
 246   13:00   91.1    11   16.5   179     25.1   924.4    0.00     584    88.1
 246   13:10   91.8    11   16.3   182     22.3   924.2    0.00     742    88.2
 246   13:20   92.2    11   15.1   179     27.0   924.0    0.00     905    88.4
 246   13:30   92.6    10   17.5   179     26.5   923.9    0.00     853    88.5
 246   13:40   92.9    11   17.9   181     27.9   923.8    0.00     822    88.7
 246   13:50   92.8    11   18.6   182     28.8   923.6    0.00     803    88.9
 246   14:00   92.7    10   17.7   177     26.9   923.6    0.00     791    89.1
 246   14:10   91.9    10   16.8   180     22.6   923.5    0.00     737    89.2
 246   14:20   91.9    10   15.3   170     23.3   923.3    0.00     661    89.4
 246   14:30   92.4    10   14.4   164     21.6   923.1    0.00     686    89.6
 246   14:40   92.7    10   14.8   168     20.5   922.8    0.00     672    89.8
 246   14:50   92.6    10   14.9   168     26.6   922.6    0.00     645    89.9
 246   15:00   92.5    10   16.0   166     24.5   922.5    0.00     618    90.1
 246   15:10   92.6    11   14.5   177     22.1   922.3    0.00     576    90.3
 246   15:20   93.1    11   13.3   192     22.4   922.0    0.00     239    90.4
 246   15:30   92.8    11   13.1   206     22.2   921.9    0.00     230    90.6
 246   15:40   92.9    11   13.8   211     23.0   921.8    0.00      82    90.8
 246   15:50   92.6    11   14.8   209     25.1   921.6    0.00      57    90.9
 246   16:00   92.8    11   15.3   202     21.7   921.6    0.00      35    91.0
 246   16:10   92.4    10   15.9   203     23.8   921.5    0.00      36    91.1
 246   16:20   92.2    11   15.0   214     22.2   921.4    0.00      39    91.2
 246   16:30   92.0    10   15.8   202     24.8   921.4    0.00      43    91.3
 246   16:40   91.8    11   13.0   209     20.7   921.3    0.00      62    91.4
 246   16:50   91.2    11   13.9   206     23.9   921.2    0.00      26    91.4
 246   17:00   91.0    11   13.8   211     23.8   921.1    0.00      29    91.5
 246   17:10   90.6    11   13.1   218     20.3   921.1    0.00      33    91.5
 246   17:20   90.1    11   13.3   220     23.8   921.1    0.00      29    91.5
 246   17:30   89.5    11   13.9   221     21.9   921.1    0.00      33    91.6
 246   17:40   89.0    11   12.5   216     20.4   921.1    0.00      42    91.6
 246   17:50   88.6    11   12.9   211     19.5   921.1    0.00      26    91.6
 246   18:00   87.9    11   11.6   210     18.7   921.1    0.00      14    91.6
 246   18:10   87.3    11   10.4   207     16.1   921.2    0.00       8    91.6
 246   18:20   87.1    12    9.7   206     15.3   921.2    0.00       4    91.6
 246   18:30   86.4    12    7.0   215     11.6   921.2    0.00       1    91.6
 246   18:40   85.8    12    7.4   215     11.9   921.2    0.00       0    91.6
 246   18:50   85.4    12    7.6   212     11.5   921.3    0.00       0    91.5
 246   19:00   84.7    12    6.4   212     10.9   921.4    0.00       0    91.5
 246   19:10   83.9    13    6.1   208      9.0   921.4    0.00       0    91.5
 246   19:20   83.6    13    6.0   216      8.7   921.5    0.00       0    91.4

Return to Amargosa Valley, Nevada graphs page.


Western Regional Climate Center,wrcc@dri.edu